VRG1039 SBCT-SBFL
Flight info
| Callsign | VRG1039 |
|---|---|
| Flight time | 0h 30m |
| Altitude | 15000 |
| Route | PONLU |
| Aircraft | B739/M-SDE2E3FGHIRWXY/LB1 |
Departure
| Time | 2026-04-14 22:26 |
|---|---|
| Airport | Curitiba-Afonso Pena International Airport (SBCT) |
Arrival
| Time | 2026-04-14 22:56 |
|---|---|
| Airport | Hercílio Luz International Airport (SBFL) |
| Time | Latitude | Longitude | Altitude | Speed | Heading |
|---|---|---|---|---|---|
| 2026-04-14 22:09 | -25.53689 | -49.17083 | 2991 ft | 0 kts | 226° |
| 2026-04-14 22:19 | -25.53677 | -49.17070 | 2992 ft | 2 kts | 227° |
| 2026-04-14 22:19 | -25.53666 | -49.17056 | 2992 ft | 2 kts | 228° |
| 2026-04-14 22:20 | -25.53656 | -49.17042 | 2992 ft | 2 kts | 238° |
| 2026-04-14 22:20 | -25.53652 | -49.17025 | 2992 ft | 2 kts | 307° |
| 2026-04-14 22:20 | -25.53657 | -49.17019 | 2992 ft | 0 kts | 316° |
| 2026-04-14 22:23 | -25.53653 | -49.17023 | 2992 ft | 5 kts | 322° |
| 2026-04-14 22:24 | -25.53621 | -49.17009 | 2992 ft | 6 kts | 65° |
| 2026-04-14 22:24 | -25.53615 | -49.16966 | 2992 ft | 6 kts | 83° |
| 2026-04-14 22:24 | -25.53612 | -49.16923 | 2993 ft | 6 kts | 89° |
| 2026-04-14 22:24 | -25.53613 | -49.16871 | 2993 ft | 8 kts | 92° |
| 2026-04-14 22:25 | -25.53615 | -49.16807 | 2993 ft | 8 kts | 91° |
| 2026-04-14 22:25 | -25.53589 | -49.16771 | 2993 ft | 6 kts | 354° |
| 2026-04-14 22:25 | -25.53550 | -49.16801 | 2992 ft | 27 kts | 317° |
| 2026-04-14 22:25 | -25.53227 | -49.17157 | 2988 ft | 104 kts | 315° |
| 2026-04-14 22:26 | -25.52544 | -49.17918 | 2981 ft | 168 kts | 315° |
| 2026-04-14 22:26 | -25.51643 | -49.18921 | 3313 ft | 191 kts | 316° |
| 2026-04-14 22:26 | -25.50682 | -49.19887 | 4323 ft | 182 kts | 322° |
| 2026-04-14 22:26 | -25.49835 | -49.20911 | 5024 ft | 181 kts | 302° |
| 2026-04-14 22:27 | -25.49466 | -49.22234 | 5441 ft | 185 kts | 266° |
| 2026-04-14 22:27 | -25.49836 | -49.23649 | 5638 ft | 205 kts | 232° |
| 2026-04-14 22:27 | -25.51025 | -49.24536 | 5840 ft | 217 kts | 188° |
| 2026-04-14 22:27 | -25.52524 | -49.24259 | 5996 ft | 230 kts | 146° |
| 2026-04-14 22:28 | -25.53546 | -49.22873 | 6180 ft | 244 kts | 107° |
| 2026-04-14 22:28 | -25.53583 | -49.20989 | 6588 ft | 253 kts | 81° |
| 2026-04-14 22:28 | -25.53346 | -49.18975 | 6797 ft | 272 kts | 88° |
| 2026-04-14 22:28 | -25.53713 | -49.16914 | 7348 ft | 277 kts | 120° |
| 2026-04-14 22:29 | -25.55062 | -49.15426 | 8091 ft | 279 kts | 153° |
| 2026-04-14 22:29 | -25.56939 | -49.14874 | 8851 ft | 281 kts | 173° |
| 2026-04-14 22:29 | -25.58877 | -49.14713 | 9703 ft | 281 kts | 176° |
| 2026-04-14 22:29 | -25.60832 | -49.14635 | 10311 ft | 287 kts | 177° |
| 2026-04-14 22:30 | -25.62889 | -49.14549 | 10598 ft | 307 kts | 176° |
| 2026-04-14 22:30 | -25.65091 | -49.14419 | 10753 ft | 328 kts | 175° |
| 2026-04-14 22:30 | -25.67424 | -49.14244 | 11115 ft | 340 kts | 175° |
| 2026-04-14 22:30 | -25.69799 | -49.14034 | 11709 ft | 344 kts | 174° |
| 2026-04-14 22:31 | -25.72193 | -49.13800 | 12306 ft | 348 kts | 174° |
| 2026-04-14 22:31 | -25.74623 | -49.13547 | 12901 ft | 352 kts | 174° |
| 2026-04-14 22:31 | -25.77065 | -49.13282 | 13506 ft | 355 kts | 174° |
| 2026-04-14 22:31 | -25.79533 | -49.13007 | 14067 ft | 358 kts | 174° |
| 2026-04-14 22:32 | -25.82028 | -49.12726 | 14546 ft | 362 kts | 174° |
| 2026-04-14 22:32 | -25.84537 | -49.12441 | 15056 ft | 362 kts | 174° |
| 2026-04-14 22:32 | -25.87022 | -49.12158 | 15081 ft | 356 kts | 174° |
| 2026-04-14 22:32 | -25.89477 | -49.11877 | 15109 ft | 356 kts | 174° |
| 2026-04-14 22:33 | -25.91956 | -49.11594 | 15121 ft | 359 kts | 174° |
| 2026-04-14 22:33 | -25.94460 | -49.11307 | 15119 ft | 363 kts | 174° |
| 2026-04-14 22:33 | -25.96965 | -49.11020 | 15110 ft | 361 kts | 174° |
| 2026-04-14 22:33 | -25.99453 | -49.10735 | 15101 ft | 358 kts | 174° |
| 2026-04-14 22:34 | -26.01889 | -49.10456 | 15098 ft | 356 kts | 174° |
| 2026-04-14 22:34 | -26.04380 | -49.10170 | 15100 ft | 355 kts | 174° |
| 2026-04-14 22:34 | -26.06808 | -49.09891 | 15108 ft | 357 kts | 174° |
| 2026-04-14 22:34 | -26.09317 | -49.09603 | 15112 ft | 360 kts | 174° |
| 2026-04-14 22:35 | -26.11785 | -49.09319 | 15106 ft | 362 kts | 174° |
| 2026-04-14 22:35 | -26.14283 | -49.09032 | 15093 ft | 360 kts | 174° |
| 2026-04-14 22:35 | -26.16775 | -49.08746 | 15091 ft | 359 kts | 174° |
| 2026-04-14 22:35 | -26.19257 | -49.08460 | 15092 ft | 358 kts | 174° |
| 2026-04-14 22:36 | -26.21731 | -49.08176 | 15090 ft | 357 kts | 174° |
| 2026-04-14 22:36 | -26.24200 | -49.07891 | 15092 ft | 357 kts | 174° |
| 2026-04-14 22:36 | -26.26670 | -49.07607 | 15089 ft | 356 kts | 174° |
| 2026-04-14 22:36 | -26.29141 | -49.07322 | 15094 ft | 357 kts | 174° |
| 2026-04-14 22:37 | -26.31615 | -49.07037 | 15093 ft | 358 kts | 174° |
| 2026-04-14 22:37 | -26.34097 | -49.06750 | 15094 ft | 358 kts | 174° |
| 2026-04-14 22:37 | -26.36554 | -49.06467 | 15091 ft | 359 kts | 174° |
| 2026-04-14 22:37 | -26.39039 | -49.06180 | 15089 ft | 360 kts | 174° |
| 2026-04-14 22:38 | -26.41533 | -49.05892 | 15092 ft | 360 kts | 174° |
| 2026-04-14 22:38 | -26.44018 | -49.05605 | 15090 ft | 361 kts | 174° |
| 2026-04-14 22:38 | -26.46524 | -49.05315 | 15086 ft | 361 kts | 174° |
| 2026-04-14 22:38 | -26.49023 | -49.05026 | 15095 ft | 361 kts | 174° |
| 2026-04-14 22:39 | -26.51520 | -49.04737 | 15089 ft | 361 kts | 174° |
| 2026-04-14 22:39 | -26.53989 | -49.04234 | 15086 ft | 362 kts | 163° |
| 2026-04-14 22:39 | -26.56375 | -49.03328 | 15094 ft | 362 kts | 160° |
| 2026-04-14 22:39 | -26.58722 | -49.02348 | 15086 ft | 362 kts | 160° |
| 2026-04-14 22:40 | -26.61093 | -49.01339 | 15087 ft | 362 kts | 160° |
| 2026-04-14 22:40 | -26.63443 | -49.00347 | 15089 ft | 361 kts | 160° |
| 2026-04-14 22:40 | -26.65772 | -48.99376 | 15091 ft | 361 kts | 160° |
| 2026-04-14 22:40 | -26.68130 | -48.98405 | 15089 ft | 361 kts | 160° |
| 2026-04-14 22:41 | -26.70491 | -48.97440 | 15088 ft | 361 kts | 160° |
| 2026-04-14 22:41 | -26.72854 | -48.96479 | 15082 ft | 360 kts | 160° |
| 2026-04-14 22:41 | -26.75209 | -48.95525 | 15084 ft | 360 kts | 161° |
| 2026-04-14 22:41 | -26.77564 | -48.94571 | 15080 ft | 360 kts | 160° |
| 2026-04-14 22:42 | -26.79882 | -48.93633 | 15069 ft | 348 kts | 161° |
| 2026-04-14 22:42 | -26.82108 | -48.92731 | 15068 ft | 333 kts | 161° |
| 2026-04-14 22:42 | -26.84251 | -48.91863 | 15065 ft | 321 kts | 161° |
| 2026-04-14 22:42 | -26.86350 | -48.91013 | 15075 ft | 320 kts | 161° |
| 2026-04-14 22:43 | -26.88459 | -48.90159 | 14869 ft | 324 kts | 160° |
| 2026-04-14 22:43 | -26.90576 | -48.89302 | 14628 ft | 323 kts | 160° |
| 2026-04-14 22:43 | -26.92687 | -48.88446 | 14270 ft | 322 kts | 160° |
| 2026-04-14 22:43 | -26.94786 | -48.87595 | 13928 ft | 319 kts | 160° |
| 2026-04-14 22:44 | -26.96843 | -48.86760 | 13508 ft | 310 kts | 160° |
| 2026-04-14 22:44 | -26.98852 | -48.85944 | 13133 ft | 304 kts | 160° |
| 2026-04-14 22:44 | -27.00832 | -48.85140 | 12785 ft | 302 kts | 160° |
| 2026-04-14 22:44 | -27.02800 | -48.84341 | 12430 ft | 300 kts | 160° |
| 2026-04-14 22:45 | -27.04758 | -48.83545 | 12082 ft | 298 kts | 160° |
| 2026-04-14 22:45 | -27.06682 | -48.82762 | 11735 ft | 297 kts | 160° |
| 2026-04-14 22:45 | -27.08623 | -48.81973 | 11396 ft | 296 kts | 160° |
| 2026-04-14 22:45 | -27.10559 | -48.81186 | 11050 ft | 295 kts | 160° |
| 2026-04-14 22:46 | -27.12487 | -48.80401 | 10688 ft | 295 kts | 159° |
| 2026-04-14 22:46 | -27.14406 | -48.79619 | 10394 ft | 292 kts | 159° |
| 2026-04-14 22:46 | -27.16296 | -48.78849 | 10260 ft | 284 kts | 159° |
| 2026-04-14 22:46 | -27.18126 | -48.78104 | 10122 ft | 276 kts | 159° |
| 2026-04-14 22:47 | -27.19921 | -48.77373 | 9832 ft | 274 kts | 159° |
| 2026-04-14 22:47 | -27.21708 | -48.76644 | 9540 ft | 271 kts | 159° |
| 2026-04-14 22:47 | -27.23454 | -48.75931 | 9254 ft | 269 kts | 159° |
| 2026-04-14 22:47 | -27.25206 | -48.75216 | 8953 ft | 267 kts | 159° |
| 2026-04-14 22:48 | -27.26955 | -48.74503 | 8626 ft | 266 kts | 159° |
| 2026-04-14 22:48 | -27.28110 | -48.74031 | 8446 ft | 265 kts | 159° |
| 2026-04-14 22:48 | -27.29837 | -48.73326 | 8155 ft | 263 kts | 159° |
| 2026-04-14 22:48 | -27.31557 | -48.72623 | 7869 ft | 261 kts | 159° |
| 2026-04-14 22:49 | -27.33812 | -48.71701 | 7514 ft | 258 kts | 159° |
| 2026-04-14 22:49 | -27.34937 | -48.71241 | 7330 ft | 257 kts | 159° |
| 2026-04-14 22:49 | -27.36634 | -48.70547 | 7058 ft | 256 kts | 159° |
| 2026-04-14 22:49 | -27.38278 | -48.69874 | 6806 ft | 253 kts | 159° |
| 2026-04-14 22:50 | -27.39936 | -48.69195 | 6544 ft | 254 kts | 159° |
| 2026-04-14 22:50 | -27.41621 | -48.68505 | 6258 ft | 260 kts | 159° |
| 2026-04-14 22:50 | -27.43341 | -48.67800 | 5976 ft | 266 kts | 159° |
| 2026-04-14 22:50 | -27.45083 | -48.67087 | 5678 ft | 266 kts | 159° |
| 2026-04-14 22:51 | -27.46806 | -48.66382 | 5392 ft | 262 kts | 159° |
| 2026-04-14 22:51 | -27.48534 | -48.65779 | 5096 ft | 259 kts | 173° |
| 2026-04-14 22:51 | -27.50282 | -48.66033 | 4773 ft | 253 kts | 202° |
| 2026-04-14 22:51 | -27.51833 | -48.66933 | 4448 ft | 250 kts | 211° |
| 2026-04-14 22:52 | -27.53298 | -48.67948 | 4106 ft | 244 kts | 212° |
| 2026-04-14 22:52 | -27.54701 | -48.68927 | 3771 ft | 237 kts | 211° |
| 2026-04-14 22:52 | -27.56123 | -48.69816 | 3442 ft | 230 kts | 195° |
| 2026-04-14 22:52 | -27.57673 | -48.69774 | 3045 ft | 226 kts | 154° |
| 2026-04-14 22:53 | -27.58876 | -48.68711 | 2786 ft | 220 kts | 132° |
| 2026-04-14 22:53 | -27.59870 | -48.67382 | 2463 ft | 219 kts | 127° |
| 2026-04-14 22:53 | -27.60734 | -48.66014 | 2196 ft | 209 kts | 121° |
| 2026-04-14 22:53 | -27.61472 | -48.64653 | 1926 ft | 198 kts | 120° |
| 2026-04-14 22:54 | -27.62158 | -48.63362 | 1662 ft | 185 kts | 120° |
| 2026-04-14 22:54 | -27.62803 | -48.62156 | 1424 ft | 172 kts | 120° |
| 2026-04-14 22:54 | -27.63381 | -48.61077 | 1221 ft | 155 kts | 120° |
| 2026-04-14 22:54 | -27.63921 | -48.60068 | 1025 ft | 149 kts | 120° |
| 2026-04-14 22:55 | -27.64455 | -48.59074 | 856 ft | 146 kts | 121° |
| 2026-04-14 22:55 | -27.64999 | -48.58098 | 705 ft | 148 kts | 121° |
| 2026-04-14 22:55 | -27.65527 | -48.57097 | 469 ft | 148 kts | 118° |
| 2026-04-14 22:55 | -27.66049 | -48.56106 | 228 ft | 147 kts | 121° |
| 2026-04-14 22:56 | -27.66578 | -48.55128 | 64 ft | 143 kts | 121° |
| 2026-04-14 22:56 | -27.67052 | -48.54232 | 26 ft | 119 kts | 121° |
| 2026-04-14 22:56 | -27.67404 | -48.53578 | 21 ft | 78 kts | 121° |
| 2026-04-14 22:56 | -27.67553 | -48.53296 | 23 ft | 31 kts | 121° |
| 2026-04-14 22:57 | -27.67653 | -48.53114 | 23 ft | 17 kts | 129° |
| 2026-04-14 22:57 | -27.67739 | -48.53087 | 23 ft | 13 kts | 194° |
| 2026-04-14 22:57 | -27.67803 | -48.53147 | 23 ft | 12 kts | 252° |
| 2026-04-14 22:57 | -27.67781 | -48.53237 | 23 ft | 12 kts | 299° |
| 2026-04-14 22:58 | -27.67739 | -48.53317 | 23 ft | 12 kts | 303° |
| 2026-04-14 22:58 | -27.67698 | -48.53394 | 23 ft | 11 kts | 299° |
| 2026-04-14 22:58 | -27.67656 | -48.53469 | 24 ft | 11 kts | 303° |
| 2026-04-14 22:58 | -27.67615 | -48.53540 | 24 ft | 11 kts | 303° |
| 2026-04-14 22:59 | -27.67578 | -48.53612 | 23 ft | 10 kts | 300° |
| 2026-04-14 22:59 | -27.67541 | -48.53680 | 26 ft | 10 kts | 303° |
| 2026-04-14 22:59 | -27.67504 | -48.53746 | 23 ft | 10 kts | 300° |
| 2026-04-14 22:59 | -27.67470 | -48.53813 | 25 ft | 10 kts | 301° |
| 2026-04-14 23:00 | -27.67436 | -48.53876 | 23 ft | 9 kts | 302° |
| 2026-04-14 23:00 | -27.67400 | -48.53936 | 23 ft | 9 kts | 305° |
| 2026-04-14 23:00 | -27.67366 | -48.53996 | 24 ft | 9 kts | 301° |
| 2026-04-14 23:00 | -27.67337 | -48.54055 | 24 ft | 9 kts | 298° |
| 2026-04-14 23:01 | -27.67308 | -48.54113 | 23 ft | 8 kts | 300° |
| 2026-04-14 23:01 | -27.67278 | -48.54168 | 23 ft | 8 kts | 301° |
| 2026-04-14 23:01 | -27.67249 | -48.54221 | 24 ft | 8 kts | 302° |
| 2026-04-14 23:01 | -27.67221 | -48.54274 | 23 ft | 8 kts | 296° |
| 2026-04-14 23:02 | -27.67231 | -48.54327 | 23 ft | 7 kts | 224° |
| 2026-04-14 23:02 | -27.67273 | -48.54360 | 25 ft | 7 kts | 214° |
| 2026-04-14 23:02 | -27.67301 | -48.54402 | 23 ft | 7 kts | 262° |
| 2026-04-14 23:02 | -27.67282 | -48.54450 | 25 ft | 6 kts | 303° |
| 2026-04-14 23:03 | -27.67277 | -48.54474 | 23 ft | 3 kts | 260° |
| 2026-04-14 23:03 | -27.67286 | -48.54492 | 23 ft | 3 kts | 214° |
| 2026-04-14 23:03 | -27.67303 | -48.54503 | 23 ft | 3 kts | 211° |
| 2026-04-14 23:03 | -27.67305 | -48.54504 | 27 ft | 0 kts | 211° |